createdAt,value
2022-10-04T00:01:52.621Z,100039.81
2022-10-04T00:04:26.370Z,100049.03
2022-10-04T00:07:07.105Z,100047.97
2022-10-04T00:09:46.191Z,100048.06
2022-10-04T00:12:33.674Z,100032.72
2022-10-04T00:15:24.882Z,100037.63
2022-10-04T00:18:29.403Z,100043.69
2022-10-04T00:21:02.802Z,100030.16
2022-10-04T00:23:43.077Z,100032.81
2022-10-04T00:26:14.555Z,100024.13
2022-10-04T00:28:44.225Z,100010.19
2022-10-04T00:31:15.699Z,100008.16
2022-10-04T00:33:49.605Z,100004.69
2022-10-04T00:36:26.226Z,99998.94
2022-10-04T00:39:08.641Z,100017.13
2022-10-04T00:41:48.472Z,100013.16
2022-10-04T00:44:51.319Z,100010.81
2022-10-04T00:47:31.866Z,100017.59
2022-10-04T00:50:44.959Z,100024.59
2022-10-04T00:53:38.826Z,100018.63
2022-10-04T00:56:15.246Z,100018.59
2022-10-04T00:59:11.646Z,100012.88
2022-10-04T01:01:39.595Z,100018.69
2022-10-04T01:04:27.600Z,100013.56
2022-10-04T01:06:58.655Z,100011.97
2022-10-04T01:09:27.841Z,100012.09
2022-10-04T01:12:10.264Z,100010.69
2022-10-04T01:14:47.126Z,100012.50
2022-10-04T01:17:14.842Z,100007.13
2022-10-04T01:19:53.300Z,100010.59
2022-10-04T01:22:41.862Z,100006.06
2022-10-04T01:25:09.937Z,100020.94
2022-10-04T01:27:44.858Z,100013.91
2022-10-04T01:30:15.434Z,100015.28
2022-10-04T01:32:45.318Z,100020.41
2022-10-04T01:35:15.420Z,100016.41
2022-10-04T01:37:43.377Z,100020.84
2022-10-04T01:40:12.138Z,100018.91
2022-10-04T01:42:52.350Z,100023.91
2022-10-04T01:45:27.101Z,100023.69
2022-10-04T01:48:03.833Z,100023.91
2022-10-04T01:50:43.924Z,100022.88
2022-10-04T01:53:42.197Z,100026.38
2022-10-04T01:56:13.880Z,100030.75
2022-10-04T01:58:56.189Z,100034.25
2022-10-04T02:01:33.456Z,100030.78
2022-10-04T02:04:11.042Z,100028.81
2022-10-04T02:06:43.211Z,100026.47
2022-10-04T02:09:19.446Z,100032.88
2022-10-04T02:11:53.155Z,100034.75
2022-10-04T02:14:28.510Z,100033.88
2022-10-04T02:16:56.741Z,100035.97
2022-10-04T02:19:32.226Z,100037.84
2022-10-04T02:22:04.442Z,100036.28
2022-10-04T02:24:37.033Z,100031.88
2022-10-04T02:27:06.318Z,100040.56
2022-10-04T02:29:34.405Z,100038.00
2022-10-04T02:32:23.617Z,100034.47
2022-10-04T02:34:52.601Z,100034.59
2022-10-04T02:37:23.750Z,100030.84
2022-10-04T02:40:13.984Z,100029.03
2022-10-04T02:43:00.424Z,100025.63
2022-10-04T02:45:48.579Z,100032.56
2022-10-04T02:48:33.764Z,100035.69
2022-10-04T02:51:21.752Z,100037.69
2022-10-04T02:54:02.929Z,100038.47
2022-10-04T02:56:32.475Z,100033.25
2022-10-04T02:59:07.730Z,100039.88
2022-10-04T03:01:57.867Z,100033.94
2022-10-04T03:04:33.587Z,100038.16
2022-10-04T03:07:06.684Z,100039.28
2022-10-04T03:09:36.714Z,100042.44
2022-10-04T03:12:06.156Z,100045.31
2022-10-04T03:14:34.516Z,100037.84
2022-10-04T03:17:04.975Z,100028.56
2022-10-04T03:19:35.520Z,100035.06
2022-10-04T03:22:09.699Z,100038.31
2022-10-04T03:24:39.884Z,100033.94
2022-10-04T03:27:09.958Z,100045.00
2022-10-04T03:29:43.277Z,100039.88
2022-10-04T03:32:15.385Z,100048.34
2022-10-04T03:34:52.268Z,100043.22
2022-10-04T03:37:21.260Z,100045.06
2022-10-04T03:39:54.794Z,100048.34
2022-10-04T03:42:26.155Z,100046.91
2022-10-04T03:45:07.332Z,100052.22
2022-10-04T03:47:40.561Z,100056.09
2022-10-04T03:50:33.621Z,100043.59
2022-10-04T03:53:16.149Z,100053.06
2022-10-04T03:55:45.905Z,100052.03
2022-10-04T03:58:17.139Z,100052.16
2022-10-04T04:01:24.883Z,100056.31
2022-10-04T04:04:20.558Z,100064.94
2022-10-04T04:06:50.675Z,100065.22
2022-10-04T04:09:33.208Z,100072.75
2022-10-04T04:12:11.438Z,100063.41
2022-10-04T04:14:41.412Z,100056.31
2022-10-04T04:17:30.107Z,100055.44
2022-10-04T04:20:07.461Z,100062.28
2022-10-04T04:22:37.555Z,100063.88
2022-10-04T04:25:11.663Z,100064.09
2022-10-04T04:27:41.919Z,100074.66
2022-10-04T04:30:16.886Z,100072.25
2022-10-04T04:32:52.775Z,100082.41
2022-10-04T04:35:25.188Z,100083.72
2022-10-04T04:38:06.501Z,100082.19
2022-10-04T04:40:34.518Z,100083.31
2022-10-04T04:43:03.855Z,100084.16
2022-10-04T04:45:34.018Z,100084.69
2022-10-04T04:48:03.647Z,100094.25
2022-10-04T04:50:39.904Z,100096.16
2022-10-04T04:53:22.624Z,100101.56
2022-10-04T04:56:03.871Z,100098.53
2022-10-04T04:58:42.539Z,100094.53
2022-10-04T05:01:23.710Z,100107.19
2022-10-04T05:04:19.458Z,100099.66
2022-10-04T05:07:06.355Z,100106.94
2022-10-04T05:09:38.562Z,100113.78
2022-10-04T05:12:11.589Z,100114.69
2022-10-04T05:14:45.944Z,100116.34
2022-10-04T05:17:31.766Z,100113.22
2022-10-04T05:20:02.696Z,100115.38
2022-10-04T05:22:32.342Z,100125.84
2022-10-04T05:25:10.346Z,100119.00
2022-10-04T05:27:44.759Z,100126.38
2022-10-04T05:30:12.811Z,100125.97
2022-10-04T05:33:02.001Z,100128.47
2022-10-04T05:35:41.330Z,100138.66
2022-10-04T05:38:21.630Z,100139.78
2022-10-04T05:41:06.835Z,100143.88
2022-10-04T05:43:45.283Z,100145.59
2022-10-04T05:46:19.275Z,100158.44
2022-10-04T05:48:52.963Z,100157.69
2022-10-04T05:51:29.520Z,100152.28
2022-10-04T05:54:01.374Z,100160.63
2022-10-04T05:56:32.388Z,100171.53
2022-10-04T05:59:18.807Z,100165.63
2022-10-04T06:02:08.428Z,100179.03
2022-10-04T06:04:55.947Z,100179.28
2022-10-04T06:07:45.112Z,100177.34
2022-10-04T06:10:43.264Z,100185.72
2022-10-04T06:13:14.174Z,100192.66
2022-10-04T06:15:53.504Z,100198.75
2022-10-04T06:18:58.682Z,100198.47
2022-10-04T06:21:30.261Z,100204.97
2022-10-04T06:24:11.140Z,100201.31
2022-10-04T06:26:44.911Z,100206.19
2022-10-04T06:29:18.226Z,100200.69
2022-10-04T06:32:15.529Z,100208.97
2022-10-04T06:35:22.001Z,100214.84
2022-10-04T06:38:10.336Z,100213.63
2022-10-04T06:40:59.694Z,100213.56
2022-10-04T06:43:57.776Z,100220.97
2022-10-04T06:46:57.626Z,100230.81
2022-10-04T06:49:51.594Z,100234.09
2022-10-04T06:52:39.680Z,100230.91
2022-10-04T06:55:41.772Z,100237.16
2022-10-04T06:58:41.358Z,100239.59
2022-10-04T07:01:34.368Z,100236.78
2022-10-04T07:04:20.074Z,100246.09
2022-10-04T07:07:26.827Z,100254.03
2022-10-04T07:10:14.247Z,100257.47
2022-10-04T07:12:45.141Z,100263.66
2022-10-04T07:15:28.273Z,100255.19
2022-10-04T07:17:59.010Z,100257.22
2022-10-04T07:20:33.829Z,100269.72
2022-10-04T07:23:06.737Z,100272.78
2022-10-04T07:25:45.704Z,100277.97
2022-10-04T07:28:37.272Z,100277.59
2022-10-04T07:31:30.296Z,100279.28
2022-10-04T07:34:23.663Z,100279.00
2022-10-04T07:37:15.026Z,100274.25
2022-10-04T07:40:22.179Z,100276.47
2022-10-04T07:42:59.794Z,100282.25
2022-10-04T07:45:35.146Z,100281.88
2022-10-04T07:48:11.339Z,100280.94
2022-10-04T07:51:14.098Z,100291.88
2022-10-04T07:53:59.872Z,100291.19
2022-10-04T07:56:47.703Z,100299.91
2022-10-04T07:59:36.684Z,100300.81
2022-10-04T08:02:28.936Z,100302.19
2022-10-04T08:05:42.916Z,100305.88
2022-10-04T08:08:29.465Z,100313.09
2022-10-04T08:11:31.813Z,100318.13
2022-10-04T08:14:33.956Z,100330.19
2022-10-04T08:17:01.867Z,100313.50
2022-10-04T08:20:06.249Z,100315.09
2022-10-04T08:22:56.154Z,100323.94
2022-10-04T08:25:30.445Z,100320.72
2022-10-04T08:28:22.858Z,100323.47
2022-10-04T08:31:15.500Z,100338.97
2022-10-04T08:33:53.610Z,100341.16
2022-10-04T08:36:39.496Z,100332.31
2022-10-04T08:39:36.735Z,100325.97
2022-10-04T08:42:34.400Z,100353.47
2022-10-04T08:45:35.736Z,100333.91
2022-10-04T08:48:34.181Z,100334.06
2022-10-04T08:51:29.382Z,100341.50
2022-10-04T08:54:27.942Z,100343.28
2022-10-04T08:57:19.503Z,100353.41
2022-10-04T08:59:58.022Z,100355.13
2022-10-04T09:02:29.000Z,100365.03
2022-10-04T09:05:05.279Z,100365.38
2022-10-04T09:07:36.698Z,100370.13
2022-10-04T09:10:25.247Z,100365.13
2022-10-04T09:13:38.815Z,100369.41
2022-10-04T09:16:59.908Z,100379.81
2022-10-04T09:20:37.410Z,100378.16
2022-10-04T09:23:42.687Z,100367.63
2022-10-04T09:26:16.008Z,100376.09
2022-10-04T09:29:05.349Z,100381.59
2022-10-04T09:32:03.333Z,100378.47
2022-10-04T09:34:52.168Z,100384.03
2022-10-04T09:37:22.819Z,100390.00
2022-10-04T09:40:12.093Z,100398.84
2022-10-04T09:43:11.441Z,100404.19
2022-10-04T09:46:03.341Z,100398.47
2022-10-04T09:48:53.570Z,100393.50
2022-10-04T09:51:57.765Z,100403.97
2022-10-04T09:54:56.896Z,100409.44
2022-10-04T09:57:44.535Z,100402.19
2022-10-04T10:00:58.041Z,100408.25
2022-10-04T10:03:36.107Z,100417.66
2022-10-04T10:06:29.585Z,100415.09
2022-10-04T10:09:16.042Z,100413.75
2022-10-04T10:12:08.277Z,100417.94
2022-10-04T10:15:13.194Z,100422.06
2022-10-04T10:17:48.506Z,100425.81
2022-10-04T10:20:28.059Z,100425.31
2022-10-04T10:23:22.053Z,100430.91
2022-10-04T10:26:16.913Z,100433.25
2022-10-04T10:29:09.566Z,100438.78
2022-10-04T10:31:47.079Z,100422.34
2022-10-04T10:34:43.492Z,100432.53
2022-10-04T10:37:24.251Z,100442.78
2022-10-04T10:40:28.274Z,100440.59
2022-10-04T10:43:18.440Z,100441.75
2022-10-04T10:45:56.767Z,100445.50
2022-10-04T10:48:27.192Z,100450.09
2022-10-04T10:51:16.130Z,100449.63
2022-10-04T10:53:58.923Z,100442.25
2022-10-04T10:56:55.430Z,100444.47
2022-10-04T10:59:41.193Z,100447.56
2022-10-04T11:02:49.859Z,100458.63
2022-10-04T11:05:47.514Z,100455.41
2022-10-04T11:08:22.203Z,100457.03
2022-10-04T11:11:16.729Z,100467.81
2022-10-04T11:13:50.510Z,100465.94
2022-10-04T11:16:24.149Z,100476.00
2022-10-04T11:19:03.907Z,100464.69
2022-10-04T11:21:54.860Z,100473.06
2022-10-04T11:24:50.596Z,100471.69
2022-10-04T11:27:25.128Z,100484.22
2022-10-04T11:30:10.326Z,100489.13
2022-10-04T11:32:56.837Z,100488.28
2022-10-04T11:35:59.311Z,100492.03
2022-10-04T11:38:48.909Z,100485.53
2022-10-04T11:42:00.639Z,100492.88
2022-10-04T11:45:12.120Z,100497.25
2022-10-04T11:48:31.252Z,100502.44
2022-10-04T11:51:20.963Z,100504.88
2022-10-04T11:53:58.297Z,100497.63
2022-10-04T11:56:29.259Z,100502.00
2022-10-04T11:59:08.667Z,100505.41
2022-10-04T12:01:59.022Z,100509.91
2022-10-04T12:05:17.379Z,100515.78
2022-10-04T12:08:22.808Z,100512.66
2022-10-04T12:11:11.411Z,100507.75
2022-10-04T12:13:48.175Z,100506.25
2022-10-04T12:17:08.621Z,100512.34
2022-10-04T12:20:01.817Z,100525.28
2022-10-04T12:22:41.617Z,100519.97
2022-10-04T12:25:27.957Z,100525.16
2022-10-04T12:28:16.789Z,100532.59
2022-10-04T12:31:16.504Z,100533.78
2022-10-04T12:33:54.201Z,100531.38
2022-10-04T12:36:37.212Z,100530.28
2022-10-04T12:39:42.344Z,100534.13
2022-10-04T12:42:17.259Z,100540.19
2022-10-04T12:45:07.183Z,100545.63
2022-10-04T12:47:51.282Z,100550.91
2022-10-04T12:50:43.910Z,100549.50
2022-10-04T12:54:05.291Z,100553.06
2022-10-04T12:56:54.570Z,100562.78
2022-10-04T12:59:51.737Z,100558.84
2022-10-04T13:02:38.467Z,100546.91
2022-10-04T13:05:34.523Z,100555.28
2022-10-04T13:08:26.781Z,100552.28
2022-10-04T13:11:13.029Z,100551.34
2022-10-04T13:13:53.112Z,100554.34
2022-10-04T13:19:53.216Z,100559.88
2022-10-04T13:22:55.531Z,100568.22
2022-10-04T13:25:27.590Z,100571.47
2022-10-04T13:28:22.328Z,100570.06
2022-10-04T13:31:14.716Z,100577.06
2022-10-04T13:33:48.703Z,100572.31
2022-10-04T13:36:45.036Z,100579.97
2022-10-04T13:39:27.707Z,100576.06
2022-10-04T13:42:42.501Z,100575.81
2022-10-04T13:45:26.878Z,100586.94
2022-10-04T13:48:21.660Z,100584.63
2022-10-04T13:51:15.245Z,100591.19
2022-10-04T13:54:54.166Z,100583.72
2022-10-04T13:57:41.020Z,100586.44
2022-10-04T14:00:19.024Z,100596.44
2022-10-04T14:03:14.840Z,100599.31
2022-10-04T14:06:15.363Z,100593.88
2022-10-04T14:09:16.301Z,100584.47
2022-10-04T14:11:53.160Z,100589.19
2022-10-04T14:14:39.789Z,100588.09
2022-10-04T14:17:28.637Z,100593.72
2022-10-04T14:20:33.702Z,100598.94
2022-10-04T14:23:30.137Z,100604.91
2022-10-04T14:26:34.201Z,100611.84
2022-10-04T14:29:29.643Z,100610.00
2022-10-04T14:32:45.958Z,100615.13
2022-10-04T14:35:53.041Z,100613.63
2022-10-04T14:38:38.621Z,100621.53
2022-10-04T14:41:45.542Z,100620.59
2022-10-04T14:44:23.492Z,100627.72
2022-10-04T14:47:14.117Z,100632.28
2022-10-04T14:50:07.690Z,100619.47
2022-10-04T14:52:47.892Z,100626.59
2022-10-04T14:55:43.445Z,100627.75
2022-10-04T14:58:17.282Z,100637.75
2022-10-04T15:01:23.928Z,100638.94
2022-10-04T15:04:12.080Z,100640.31
2022-10-04T15:07:13.417Z,100639.09
2022-10-04T15:10:12.822Z,100645.38
2022-10-04T15:13:32.043Z,100641.66
2022-10-04T15:16:10.079Z,100646.94
2022-10-04T15:18:50.388Z,100663.47
2022-10-04T15:21:53.362Z,100656.78
2022-10-04T15:24:31.157Z,100659.88
2022-10-04T15:27:24.064Z,100666.78
2022-10-04T15:30:10.799Z,100662.88
2022-10-04T15:33:12.695Z,100676.03
2022-10-04T15:35:49.128Z,100677.28
2022-10-04T15:38:29.296Z,100682.59
2022-10-04T15:41:19.885Z,100691.09
2022-10-04T15:43:54.131Z,100685.50
2022-10-04T15:46:41.040Z,100688.69
2022-10-04T15:49:53.460Z,100695.63
2022-10-04T15:52:39.138Z,100702.22
2022-10-04T15:55:29.663Z,100700.56
2022-10-04T15:58:24.755Z,100709.03
2022-10-04T16:01:24.303Z,100721.53
2022-10-04T16:04:20.607Z,100720.78
2022-10-04T16:07:07.049Z,100723.59
2022-10-04T16:09:41.032Z,100723.47
2022-10-04T16:12:44.571Z,100729.47
2022-10-04T16:15:31.417Z,100731.53
2022-10-04T16:18:12.313Z,100724.88
2022-10-04T16:21:06.170Z,100738.41
2022-10-04T16:23:36.644Z,100749.69
2022-10-04T16:26:11.769Z,100742.91
2022-10-04T16:29:11.680Z,100740.16
2022-10-04T16:31:51.317Z,100745.50
2022-10-04T16:34:41.567Z,100749.84
2022-10-04T16:37:24.734Z,100754.31
2022-10-04T16:40:16.082Z,100755.63
2022-10-04T16:43:03.909Z,100752.50
2022-10-04T16:45:41.191Z,100759.50
2022-10-04T16:48:43.521Z,100760.91
2022-10-04T16:51:17.808Z,100765.56
2022-10-04T16:54:04.692Z,100769.59
2022-10-04T16:56:58.185Z,100767.84
2022-10-04T16:59:38.419Z,100768.53
2022-10-04T17:02:15.566Z,100774.00
2022-10-04T17:04:56.304Z,100775.81
2022-10-04T17:07:33.949Z,100783.06
2022-10-04T17:10:16.195Z,100779.59
2022-10-04T17:12:49.703Z,100783.59
2022-10-04T17:15:38.408Z,100783.91
2022-10-04T17:18:06.498Z,100787.44
2022-10-04T17:20:43.259Z,100784.13
2022-10-04T17:23:41.128Z,100783.84
2022-10-04T17:26:31.730Z,100788.50
2022-10-04T17:29:21.823Z,100797.84
2022-10-04T17:32:03.466Z,100795.19
2022-10-04T17:34:56.084Z,100800.75
2022-10-04T17:37:55.362Z,100793.69
2022-10-04T17:41:09.573Z,100801.28
2022-10-04T17:43:46.461Z,100792.75
2022-10-04T17:46:36.964Z,100794.19
2022-10-04T17:49:31.904Z,100792.53
2022-10-04T17:52:29.346Z,100790.31
2022-10-04T17:55:18.524Z,100800.66
2022-10-04T17:57:52.434Z,100798.84
2022-10-04T18:00:25.262Z,100806.25
2022-10-04T18:03:20.351Z,100812.69
2022-10-04T18:06:05.081Z,100812.47
2022-10-04T18:09:19.599Z,100816.31
2022-10-04T18:12:02.811Z,100816.38
2022-10-04T18:14:30.673Z,100815.88
2022-10-04T18:17:02.019Z,100822.94
2022-10-04T18:19:50.572Z,100823.00
2022-10-04T18:22:26.424Z,100825.81
2022-10-04T18:25:13.453Z,100821.63
2022-10-04T18:28:07.855Z,100832.06
2022-10-04T18:30:51.433Z,100834.66
2022-10-04T18:33:26.053Z,100844.41
2022-10-04T18:36:05.678Z,100839.47
2022-10-04T18:38:37.059Z,100847.47
2022-10-04T18:41:21.339Z,100856.28
2022-10-04T18:43:58.044Z,100845.31
2022-10-04T18:46:37.450Z,100856.81
2022-10-04T18:49:25.511Z,100850.00
2022-10-04T18:52:10.302Z,100855.09
2022-10-04T18:54:53.252Z,100854.25
2022-10-04T18:57:54.957Z,100867.66
2022-10-04T19:00:42.039Z,100855.81
2022-10-04T19:03:28.628Z,100871.66
2022-10-04T19:06:12.407Z,100868.41
2022-10-04T19:09:01.722Z,100879.00
2022-10-04T19:11:33.973Z,100872.91
2022-10-04T19:14:20.502Z,100876.50
2022-10-04T19:17:20.760Z,100882.59
2022-10-04T19:19:57.154Z,100892.28
2022-10-04T19:23:12.061Z,100888.13
2022-10-04T19:26:10.058Z,100888.31
2022-10-04T19:28:37.804Z,100890.19
2022-10-04T19:31:11.840Z,100887.59
2022-10-04T19:34:09.018Z,100875.41
2022-10-04T19:36:58.708Z,100886.00
2022-10-04T19:39:52.373Z,100889.47
2022-10-04T19:42:36.325Z,100894.91
2022-10-04T19:45:26.814Z,100891.56
2022-10-04T19:48:01.294Z,100895.13
2022-10-04T19:50:35.659Z,100896.03
2022-10-04T19:53:20.095Z,100896.94
2022-10-04T19:55:50.901Z,100904.75
2022-10-04T19:58:41.681Z,100909.94
2022-10-04T20:01:21.462Z,100917.81
2022-10-04T20:04:08.171Z,100914.34
2022-10-04T20:06:38.370Z,100910.06
2022-10-04T20:09:37.138Z,100917.94
2022-10-04T20:12:06.383Z,100923.88
2022-10-04T20:14:34.182Z,100920.34
2022-10-04T20:17:03.223Z,100924.75
2022-10-04T20:19:31.360Z,100930.91
2022-10-04T20:22:08.367Z,100930.25
2022-10-04T20:24:39.566Z,100944.19
2022-10-04T20:27:27.073Z,100940.75
2022-10-04T20:30:04.818Z,100939.88
2022-10-04T20:32:37.326Z,100949.44
2022-10-04T20:35:43.805Z,100953.56
2022-10-04T20:38:31.821Z,100955.50
2022-10-04T20:41:01.376Z,100957.41
2022-10-04T20:43:29.201Z,100953.97
2022-10-04T20:45:58.730Z,100955.53
2022-10-04T20:48:31.435Z,100951.28
2022-10-04T20:51:12.573Z,100955.72
2022-10-04T20:54:03.433Z,100959.31
2022-10-04T20:56:33.560Z,100954.16
2022-10-04T20:59:03.875Z,100955.09
2022-10-04T21:01:36.780Z,100955.97
2022-10-04T21:04:15.607Z,100955.97
2022-10-04T21:06:56.196Z,100956.06
2022-10-04T21:09:25.398Z,100966.53
2022-10-04T21:11:55.222Z,100963.94
2022-10-04T21:14:24.099Z,100960.44
2022-10-04T21:16:55.602Z,100974.38
2022-10-04T21:19:35.960Z,100964.00
2022-10-04T21:22:04.710Z,100964.13
2022-10-04T21:24:42.676Z,100971.91
2022-10-04T21:27:35.985Z,100970.19
2022-10-04T21:30:15.453Z,100966.75
2022-10-04T21:32:43.530Z,100965.09
2022-10-04T21:35:13.297Z,100971.25
2022-10-04T21:37:41.120Z,100977.28
2022-10-04T21:40:09.490Z,100975.50
2022-10-04T21:42:37.924Z,100985.09
2022-10-04T21:45:06.069Z,100980.78
2022-10-04T21:47:33.828Z,100970.47
2022-10-04T21:50:01.850Z,100970.50
2022-10-04T21:52:29.550Z,100960.97
2022-10-04T21:54:57.788Z,100946.25
2022-10-04T21:57:25.502Z,100963.56
2022-10-04T21:59:53.231Z,100962.66
2022-10-04T22:02:21.140Z,100952.28
2022-10-04T22:04:48.990Z,100957.53
2022-10-04T22:07:16.652Z,100956.78
2022-10-04T22:09:44.545Z,100961.06
2022-10-04T22:12:12.307Z,100960.19
2022-10-04T22:14:39.986Z,100965.41
2022-10-04T22:17:07.934Z,100967.16
2022-10-04T22:19:35.684Z,100981.06
2022-10-04T22:22:03.413Z,100972.25
2022-10-04T22:24:38.895Z,100985.31
2022-10-04T22:27:13.164Z,100982.84
2022-10-04T22:29:41.321Z,100975.09
2022-10-04T22:32:18.171Z,100988.06
2022-10-04T22:34:46.187Z,100986.41
2022-10-04T22:37:14.209Z,100985.53
2022-10-04T22:39:42.214Z,100986.38
2022-10-04T22:42:14.241Z,101005.44
2022-10-04T22:44:42.486Z,101011.38
2022-10-04T22:47:15.826Z,101014.78
2022-10-04T22:49:46.811Z,101018.16
2022-10-04T22:52:23.339Z,101015.50
2022-10-04T22:54:53.674Z,101026.69
2022-10-04T22:57:21.733Z,101023.94
2022-10-04T22:59:53.480Z,101029.97
2022-10-04T23:02:29.976Z,101023.06
2022-10-04T23:05:12.300Z,101017.75
2022-10-04T23:07:40.656Z,101022.97
2022-10-04T23:10:10.214Z,101023.00
2022-10-04T23:12:39.717Z,101022.06
2022-10-04T23:15:11.047Z,101018.50
2022-10-04T23:17:40.112Z,101014.97
2022-10-04T23:20:18.525Z,101007.91
2022-10-04T23:22:50.752Z,101008.75
2022-10-04T23:25:20.787Z,101009.50
2022-10-04T23:27:48.918Z,101012.75
2022-10-04T23:30:20.418Z,101013.66
2022-10-04T23:32:56.718Z,101014.50
2022-10-04T23:35:30.025Z,101017.91
2022-10-04T23:37:58.361Z,101013.44
2022-10-04T23:40:26.844Z,101017.91
2022-10-04T23:43:04.300Z,101017.94
2022-10-04T23:45:35.248Z,101017.91
2022-10-04T23:48:03.155Z,101016.25
2022-10-04T23:50:37.435Z,101008.44
2022-10-04T23:53:11.455Z,101009.28
2022-10-04T23:55:42.704Z,101009.22
2022-10-04T23:58:16.876Z,101014.31
